createdAt,value
2022-11-24T00:01:26.646Z,98369.00
2022-11-24T00:04:00.295Z,98376.20
2022-11-24T00:06:29.471Z,98376.80
2022-11-24T00:08:59.638Z,98373.00
2022-11-24T00:11:30.814Z,98368.00
2022-11-24T00:13:59.153Z,98383.40
2022-11-24T00:16:33.657Z,98381.60
2022-11-24T00:19:04.274Z,98382.80
2022-11-24T00:21:32.436Z,98384.80
2022-11-24T00:24:00.724Z,98385.00
2022-11-24T00:26:32.092Z,98385.00
2022-11-24T00:29:02.296Z,98377.80
2022-11-24T00:31:39.220Z,98383.80
2022-11-24T00:34:11.286Z,98386.20
2022-11-24T00:36:41.137Z,98384.20
2022-11-24T00:39:14.235Z,98388.80
2022-11-24T00:41:43.019Z,98391.00
2022-11-24T00:44:11.535Z,98388.20
2022-11-24T00:46:40.143Z,98395.80
2022-11-24T00:49:08.365Z,98394.40
2022-11-24T00:51:39.198Z,98396.20
2022-11-24T00:54:07.251Z,98386.20
2022-11-24T00:56:35.574Z,98386.20
2022-11-24T00:59:04.419Z,98392.20
2022-11-24T01:01:32.435Z,98383.40
2022-11-24T01:04:03.525Z,98388.60
2022-11-24T01:06:32.845Z,98391.60
2022-11-24T01:09:01.042Z,98394.20
2022-11-24T01:11:50.800Z,98389.60
2022-11-24T01:14:19.271Z,98392.40
2022-11-24T01:16:47.242Z,98398.00
2022-11-24T01:19:15.617Z,98397.20
2022-11-24T01:21:43.476Z,98404.00
2022-11-24T01:24:11.968Z,98401.60
2022-11-24T01:26:40.713Z,98402.60
2022-11-24T01:29:10.243Z,98400.20
2022-11-24T01:31:38.401Z,98404.20
2022-11-24T01:34:06.608Z,98400.00
2022-11-24T01:36:34.775Z,98393.60
2022-11-24T01:39:02.733Z,98398.20
2022-11-24T01:41:30.927Z,98394.60
2022-11-24T01:43:59.098Z,98401.60
2022-11-24T01:46:42.830Z,98397.20
2022-11-24T01:49:22.936Z,98401.40
2022-11-24T01:51:57.128Z,98396.20
2022-11-24T01:54:34.200Z,98392.60
2022-11-24T01:57:14.126Z,98399.20
2022-11-24T01:59:46.693Z,98400.60
2022-11-24T02:02:16.208Z,98402.40
2022-11-24T02:04:44.367Z,98393.20
2022-11-24T02:07:14.764Z,98399.60
2022-11-24T02:09:47.989Z,98404.80
2022-11-24T02:12:15.851Z,98407.00
2022-11-24T02:14:45.099Z,98402.60
2022-11-24T02:17:13.334Z,98411.00
2022-11-24T02:19:41.494Z,98407.80
2022-11-24T02:22:39.886Z,98419.80
2022-11-24T02:25:37.439Z,98413.40
2022-11-24T02:28:09.116Z,98416.20
2022-11-24T02:30:37.485Z,98409.20
2022-11-24T02:33:05.657Z,98413.80
2022-11-24T02:35:33.835Z,98419.00
2022-11-24T02:38:02.096Z,98409.00
2022-11-24T02:40:31.214Z,98413.40
2022-11-24T02:43:08.283Z,98409.60
2022-11-24T02:45:36.338Z,98402.20
2022-11-24T02:48:07.185Z,98403.20
2022-11-24T02:50:35.142Z,98402.60
2022-11-24T02:53:05.526Z,98399.40
2022-11-24T02:55:33.491Z,98404.20
2022-11-24T02:58:01.407Z,98404.60
2022-11-24T03:00:29.370Z,98406.00
2022-11-24T03:02:57.533Z,98404.80
2022-11-24T03:05:26.143Z,98410.40
2022-11-24T03:07:54.302Z,98403.20
2022-11-24T03:10:22.695Z,98404.80
2022-11-24T03:12:50.868Z,98404.00
2022-11-24T03:15:19.065Z,98408.60
2022-11-24T03:17:47.108Z,98402.00
2022-11-24T03:20:17.640Z,98405.80
2022-11-24T03:22:45.638Z,98404.80
2022-11-24T03:25:13.766Z,98407.20
2022-11-24T03:27:41.938Z,98407.60
2022-11-24T03:30:11.415Z,98405.00
2022-11-24T03:32:39.643Z,98409.00
2022-11-24T03:35:09.120Z,98403.00
2022-11-24T03:37:37.543Z,98402.40
2022-11-24T03:40:07.004Z,98406.80
2022-11-24T03:42:36.111Z,98407.00
2022-11-24T03:45:30.038Z,98410.00
2022-11-24T03:47:52.834Z,98410.60
2022-11-24T03:50:21.113Z,98409.80
2022-11-24T03:52:49.168Z,98411.40
2022-11-24T03:55:17.137Z,98412.40
2022-11-24T03:57:47.367Z,98415.80
2022-11-24T04:00:16.820Z,98414.20
2022-11-24T04:02:45.014Z,98415.80
2022-11-24T04:05:13.526Z,98424.00
2022-11-24T04:07:41.530Z,98424.80
2022-11-24T04:10:09.775Z,98428.40
2022-11-24T04:12:44.339Z,98428.40
2022-11-24T04:15:15.084Z,98428.40
2022-11-24T04:17:44.732Z,98426.20
2022-11-24T04:20:14.341Z,98436.20
2022-11-24T04:22:43.240Z,98429.40
2022-11-24T04:25:11.537Z,98431.40
2022-11-24T04:27:39.603Z,98433.00
2022-11-24T04:30:08.788Z,98436.80
2022-11-24T04:32:36.733Z,98441.00
2022-11-24T04:35:05.201Z,98442.60
2022-11-24T04:37:34.610Z,98445.80
2022-11-24T04:40:02.596Z,98441.60
2022-11-24T04:42:30.671Z,98446.80
2022-11-24T04:44:58.832Z,98449.60
2022-11-24T04:47:27.411Z,98449.40
2022-11-24T04:49:55.686Z,98450.80
2022-11-24T04:52:24.985Z,98447.80
2022-11-24T04:54:52.955Z,98455.40
2022-11-24T04:57:23.823Z,98457.00
2022-11-24T04:59:52.950Z,98455.00
2022-11-24T05:02:21.514Z,98457.40
2022-11-24T05:04:49.472Z,98459.20
2022-11-24T05:07:20.096Z,98456.60
2022-11-24T05:10:06.668Z,98460.00
2022-11-24T05:12:34.556Z,98467.00
2022-11-24T05:15:06.485Z,98468.00
2022-11-24T05:17:38.864Z,98470.80
2022-11-24T05:20:07.862Z,98470.80
2022-11-24T05:22:37.129Z,98470.80
2022-11-24T05:25:06.074Z,98475.80
2022-11-24T05:27:34.130Z,98475.20
2022-11-24T05:30:05.013Z,98475.80
2022-11-24T05:32:33.144Z,98473.60
2022-11-24T05:35:02.436Z,98484.80
2022-11-24T05:37:30.622Z,98484.20
2022-11-24T05:40:02.524Z,98484.40
2022-11-24T05:42:47.250Z,98488.00
2022-11-24T05:45:19.445Z,98487.20
2022-11-24T05:47:50.018Z,98489.40
2022-11-24T05:50:20.052Z,98494.00
2022-11-24T05:52:49.540Z,98493.80
2022-11-24T05:58:48.657Z,98497.20
2022-11-24T06:01:16.544Z,98496.40
2022-11-24T06:03:44.497Z,98500.80
2022-11-24T06:06:12.559Z,98501.60
2022-11-24T06:08:40.539Z,98508.40
2022-11-24T06:11:18.331Z,98507.40
2022-11-24T06:13:48.652Z,98512.00
2022-11-24T06:16:16.664Z,98511.00
2022-11-24T06:18:44.483Z,98510.80
2022-11-24T06:21:12.356Z,98511.20
2022-11-24T06:23:40.573Z,98513.60
2022-11-24T06:26:09.280Z,98521.20
2022-11-24T06:28:37.400Z,98520.20
2022-11-24T06:31:05.458Z,98528.60
2022-11-24T06:33:35.995Z,98527.60
2022-11-24T06:36:09.636Z,98537.80
2022-11-24T06:38:37.756Z,98541.40
2022-11-24T06:41:08.530Z,98542.60
2022-11-24T06:43:36.611Z,98539.40
2022-11-24T06:46:04.735Z,98544.80
2022-11-24T06:48:32.818Z,98547.20
2022-11-24T06:51:06.759Z,98550.40
2022-11-24T06:53:39.614Z,98551.40
2022-11-24T06:56:15.678Z,98548.80
2022-11-24T06:58:47.798Z,98552.20
2022-11-24T07:01:24.692Z,98551.80
2022-11-24T07:03:53.588Z,98554.80
2022-11-24T07:06:22.690Z,98557.20
2022-11-24T07:08:51.106Z,98558.00
2022-11-24T07:11:23.653Z,98565.20
2022-11-24T07:13:55.155Z,98567.60
2022-11-24T07:16:27.834Z,98569.20
2022-11-24T07:18:55.865Z,98567.80
2022-11-24T07:21:24.698Z,98565.80
2022-11-24T07:23:54.688Z,98562.20
2022-11-24T07:26:23.071Z,98568.00
2022-11-24T07:28:51.011Z,98565.00
2022-11-24T07:31:21.173Z,98572.40
2022-11-24T07:33:50.192Z,98567.00
2022-11-24T07:36:18.054Z,98571.00
2022-11-24T07:38:46.019Z,98577.60
2022-11-24T07:41:15.139Z,98580.40
2022-11-24T07:43:43.090Z,98582.00
2022-11-24T07:46:15.910Z,98576.80
2022-11-24T07:48:44.423Z,98578.60
2022-11-24T07:51:12.671Z,98581.40
2022-11-24T07:53:40.643Z,98582.60
2022-11-24T07:56:09.284Z,98576.20
2022-11-24T07:58:37.566Z,98579.40
2022-11-24T08:01:18.241Z,98573.20
2022-11-24T08:03:46.702Z,98575.60
2022-11-24T08:06:38.658Z,98572.80
2022-11-24T08:09:03.119Z,98568.00
2022-11-24T08:11:31.726Z,98576.60
2022-11-24T08:13:59.716Z,98580.20
2022-11-24T08:16:28.010Z,98578.00
2022-11-24T08:18:56.590Z,98583.40
2022-11-24T08:21:24.842Z,98585.40
2022-11-24T08:23:56.764Z,98593.20
2022-11-24T08:26:25.410Z,98596.60
2022-11-24T08:28:58.284Z,98592.60
2022-11-24T08:31:32.940Z,98601.40
2022-11-24T08:34:02.588Z,98596.60
2022-11-24T08:36:30.480Z,98598.80
2022-11-24T08:38:59.829Z,98604.40
2022-11-24T08:41:28.198Z,98607.60
2022-11-24T08:43:56.139Z,98607.00
2022-11-24T08:46:24.176Z,98604.20
2022-11-24T08:48:54.386Z,98602.60
2022-11-24T08:51:25.189Z,98601.40
2022-11-24T08:53:58.353Z,98605.40
2022-11-24T08:56:31.578Z,98603.00
2022-11-24T08:58:59.681Z,98608.00
2022-11-24T09:01:27.938Z,98604.40
2022-11-24T09:03:56.382Z,98603.20
2022-11-24T09:06:26.926Z,98605.00
2022-11-24T09:08:55.664Z,98613.80
2022-11-24T09:11:24.769Z,98612.60
2022-11-24T09:13:53.911Z,98618.20
2022-11-24T09:16:26.951Z,98616.60
2022-11-24T09:19:05.780Z,98610.80
2022-11-24T09:21:36.996Z,98615.00
2022-11-24T09:24:07.428Z,98615.80
2022-11-24T09:26:37.013Z,98611.00
2022-11-24T09:29:06.415Z,98615.20
2022-11-24T09:31:36.217Z,98615.20
2022-11-24T09:34:05.860Z,98618.60
2022-11-24T09:36:34.038Z,98619.20
2022-11-24T09:39:01.996Z,98622.60
2022-11-24T09:41:39.976Z,98620.40
2022-11-24T09:44:46.555Z,98617.00
2022-11-24T09:47:39.677Z,98613.00
2022-11-24T09:50:16.727Z,98619.00
2022-11-24T09:53:14.278Z,98617.40
2022-11-24T09:55:47.646Z,98619.00
2022-11-24T09:58:45.982Z,98615.40
2022-11-24T10:01:21.580Z,98615.20
2022-11-24T10:03:53.751Z,98616.80
2022-11-24T10:06:46.457Z,98616.20
2022-11-24T10:09:39.670Z,98620.60
2022-11-24T10:12:35.121Z,98622.80
2022-11-24T10:15:44.491Z,98619.80
2022-11-24T10:18:27.427Z,98619.20
2022-11-24T10:21:27.624Z,98619.80
2022-11-24T10:24:37.161Z,98619.60
2022-11-24T10:27:18.883Z,98617.60
2022-11-24T10:29:50.105Z,98627.60
2022-11-24T10:32:22.035Z,98631.20
2022-11-24T10:34:52.418Z,98631.00
2022-11-24T10:37:37.154Z,98626.00
2022-11-24T10:40:49.128Z,98624.60
2022-11-24T10:43:12.713Z,98625.60
2022-11-24T10:45:40.848Z,98628.80
2022-11-24T10:48:44.196Z,98625.20
2022-11-24T10:51:44.079Z,98632.60
2022-11-24T10:54:18.140Z,98629.40
2022-11-24T10:56:47.331Z,98630.40
2022-11-24T10:59:24.538Z,98629.20
2022-11-24T11:01:52.997Z,98631.60
2022-11-24T11:04:32.531Z,98629.00
2022-11-24T11:07:21.660Z,98638.80
2022-11-24T11:09:49.553Z,98646.40
2022-11-24T11:15:31.461Z,98640.40
2022-11-24T11:18:00.214Z,98643.60
2022-11-24T11:20:33.032Z,98643.00
2022-11-24T11:23:05.199Z,98646.60
2022-11-24T11:25:34.264Z,98645.60
2022-11-24T11:28:18.289Z,98648.80
2022-11-24T11:31:22.277Z,98644.40
2022-11-24T11:34:26.761Z,98650.00
2022-11-24T11:36:56.394Z,98658.20
2022-11-24T11:39:38.031Z,98657.80
2022-11-24T11:45:43.937Z,98657.40
2022-11-24T11:48:43.235Z,98658.60
2022-11-24T11:51:43.382Z,98659.00
2022-11-24T11:54:26.269Z,98663.80
2022-11-24T11:57:35.245Z,98667.60
2022-11-24T12:00:22.519Z,98664.80
2022-11-24T12:03:33.413Z,98668.80
2022-11-24T12:06:42.737Z,98669.40
2022-11-24T12:09:36.883Z,98664.20
2022-11-24T12:12:35.389Z,98672.00
2022-11-24T12:15:28.608Z,98669.60
2022-11-24T12:18:40.205Z,98668.80
2022-11-24T12:21:26.068Z,98670.80
2022-11-24T12:24:22.311Z,98675.80
2022-11-24T12:26:57.267Z,98675.20
2022-11-24T12:29:53.399Z,98678.00
2022-11-24T12:32:47.322Z,98683.60
2022-11-24T12:35:34.661Z,98680.00
2022-11-24T12:38:28.498Z,98684.20
2022-11-24T12:41:41.872Z,98685.00
2022-11-24T12:44:50.786Z,98692.20
2022-11-24T12:47:23.260Z,98680.80
2022-11-24T12:50:09.140Z,98692.40
2022-11-24T12:52:55.561Z,98686.80
2022-11-24T12:55:27.714Z,98695.60
2022-11-24T12:58:09.339Z,98697.20
2022-11-24T13:01:09.323Z,98690.60
2022-11-24T13:03:51.109Z,98697.00
2022-11-24T13:06:43.087Z,98697.40
2022-11-24T13:09:14.120Z,98694.40
2022-11-24T13:11:50.152Z,98693.80
2022-11-24T13:14:37.679Z,98691.20
2022-11-24T13:17:38.332Z,98694.00
2022-11-24T13:20:20.961Z,98690.20
2022-11-24T13:22:56.086Z,98690.80
2022-11-24T13:25:32.459Z,98691.80
2022-11-24T13:28:03.516Z,98694.20
2022-11-24T13:30:34.516Z,98697.80
2022-11-24T13:33:27.389Z,98698.80
2022-11-24T13:36:04.614Z,98701.00
2022-11-24T13:38:44.906Z,98706.60
2022-11-24T13:41:33.044Z,98705.80
2022-11-24T13:44:13.538Z,98706.00
2022-11-24T13:47:05.823Z,98711.60
2022-11-24T13:49:42.904Z,98711.60
2022-11-24T13:52:36.215Z,98711.80
2022-11-24T13:55:25.953Z,98713.00
2022-11-24T13:58:00.679Z,98710.40
2022-11-24T14:00:34.060Z,98718.00
2022-11-24T14:03:27.985Z,98718.60
2022-11-24T14:05:55.871Z,98721.60
2022-11-24T14:08:33.153Z,98719.60
2022-11-24T14:11:01.736Z,98726.60
2022-11-24T14:13:34.117Z,98733.20
2022-11-24T14:16:06.253Z,98732.60
2022-11-24T14:18:35.615Z,98733.20
2022-11-24T14:21:30.432Z,98736.80
2022-11-24T14:24:21.181Z,98741.00
2022-11-24T14:26:48.957Z,98748.20
2022-11-24T14:29:20.571Z,98749.00
2022-11-24T14:31:59.788Z,98752.00
2022-11-24T14:34:29.963Z,98753.80
2022-11-24T14:36:58.083Z,98755.40
2022-11-24T14:39:26.930Z,98754.60
2022-11-24T14:42:03.966Z,98759.00
2022-11-24T14:44:35.566Z,98760.60
2022-11-24T14:47:05.378Z,98759.40
2022-11-24T14:49:40.732Z,98763.60
2022-11-24T14:52:14.467Z,98768.00
2022-11-24T14:54:56.879Z,98766.40
2022-11-24T14:57:35.821Z,98768.80
2022-11-24T15:00:08.555Z,98769.80
2022-11-24T15:02:50.150Z,98770.80
2022-11-24T15:05:22.961Z,98777.40
2022-11-24T15:07:59.936Z,98774.60
2022-11-24T15:10:35.144Z,98773.60
2022-11-24T15:13:06.776Z,98788.40
2022-11-24T15:15:37.707Z,98788.40
2022-11-24T15:18:06.296Z,98791.00
2022-11-24T15:20:36.384Z,98786.00
2022-11-24T15:23:13.489Z,98791.40
2022-11-24T15:25:41.524Z,98786.40
2022-11-24T15:28:09.427Z,98789.00
2022-11-24T15:30:37.685Z,98793.60
2022-11-24T15:33:16.563Z,98798.00
2022-11-24T15:35:44.687Z,98795.00
2022-11-24T15:38:13.137Z,98799.40
2022-11-24T15:40:43.915Z,98801.40
2022-11-24T15:43:35.610Z,98804.40
2022-11-24T15:46:04.555Z,98807.40
2022-11-24T15:48:32.633Z,98812.40
2022-11-24T15:51:03.088Z,98814.40
2022-11-24T15:53:35.522Z,98818.80
2022-11-24T15:56:04.077Z,98816.80
2022-11-24T15:58:31.845Z,98817.00
2022-11-24T16:00:59.991Z,98817.60
2022-11-24T16:06:24.659Z,98824.20
2022-11-24T16:08:54.072Z,98819.40
2022-11-24T16:11:22.579Z,98820.20
2022-11-24T16:13:53.335Z,98822.20
2022-11-24T16:16:23.224Z,98824.80
2022-11-24T16:18:51.162Z,98828.00
2022-11-24T16:21:19.019Z,98833.60
2022-11-24T16:23:47.812Z,98835.00
2022-11-24T16:26:15.733Z,98836.60
2022-11-24T16:28:45.384Z,98833.60
2022-11-24T16:31:16.341Z,98835.00
2022-11-24T16:33:46.475Z,98831.20
2022-11-24T16:36:14.624Z,98836.20
2022-11-24T16:38:42.740Z,98845.40
2022-11-24T16:41:11.185Z,98841.40
2022-11-24T16:43:39.144Z,98846.60
2022-11-24T16:46:22.183Z,98847.40
2022-11-24T16:48:52.784Z,98845.20
2022-11-24T16:51:22.219Z,98844.80
2022-11-24T16:53:57.888Z,98841.80
2022-11-24T16:56:27.426Z,98848.00
2022-11-24T16:58:55.399Z,98849.80
2022-11-24T17:01:23.905Z,98851.60
2022-11-24T17:03:59.467Z,98859.60
2022-11-24T17:06:35.639Z,98861.80
2022-11-24T17:09:40.529Z,98870.20
2022-11-24T17:12:21.620Z,98872.40
2022-11-24T17:16:10.843Z,98876.80
2022-11-24T17:20:03.171Z,98884.40
2022-11-24T17:22:39.343Z,98887.40
2022-11-24T17:25:08.848Z,98885.40
2022-11-24T17:27:37.372Z,98889.60
2022-11-24T17:30:07.351Z,98892.40
2022-11-24T17:32:35.324Z,98894.60
2022-11-24T17:35:03.151Z,98899.00
2022-11-24T17:37:32.202Z,98901.80
2022-11-24T17:40:26.958Z,98909.20
2022-11-24T17:42:48.119Z,98912.00
2022-11-24T17:45:15.996Z,98910.80
2022-11-24T17:47:44.188Z,98910.60
2022-11-24T17:50:12.418Z,98907.80
2022-11-24T17:52:40.279Z,98918.80
2022-11-24T17:55:09.722Z,98917.40
2022-11-24T17:57:37.510Z,98916.60
2022-11-24T18:00:06.849Z,98919.20
2022-11-24T18:02:40.650Z,98925.00
2022-11-24T18:05:09.077Z,98925.20
2022-11-24T18:07:37.226Z,98923.40
2022-11-24T18:10:06.318Z,98926.20
2022-11-24T18:12:34.294Z,98923.60
2022-11-24T18:15:02.164Z,98925.40
2022-11-24T18:17:29.996Z,98923.60
2022-11-24T18:19:57.981Z,98925.80
2022-11-24T18:22:49.986Z,98927.60
2022-11-24T18:25:14.148Z,98929.20
2022-11-24T18:27:42.057Z,98928.20
2022-11-24T18:30:10.571Z,98932.20
2022-11-24T18:32:38.966Z,98929.40
2022-11-24T18:35:07.256Z,98928.60
2022-11-24T18:37:36.939Z,98931.00
2022-11-24T18:40:06.136Z,98936.00
2022-11-24T18:42:34.311Z,98948.00
2022-11-24T18:45:02.453Z,98945.00
2022-11-24T18:47:30.805Z,98946.00
2022-11-24T18:50:00.362Z,98943.40
2022-11-24T18:52:28.516Z,98941.80
2022-11-24T18:54:57.608Z,98939.60
2022-11-24T18:57:25.780Z,98938.00
2022-11-24T18:59:53.950Z,98941.60
2022-11-24T19:02:22.114Z,98937.60
2022-11-24T19:04:50.389Z,98939.40
2022-11-24T19:07:18.235Z,98942.00
2022-11-24T19:09:46.748Z,98940.60
2022-11-24T19:12:14.601Z,98936.80
2022-11-24T19:14:42.687Z,98947.80
2022-11-24T19:17:10.756Z,98946.40
2022-11-24T19:19:39.845Z,98949.20
2022-11-24T19:22:08.738Z,98950.60
2022-11-24T19:24:46.520Z,98957.20
2022-11-24T19:27:14.811Z,98951.60
2022-11-24T19:29:43.329Z,98948.00
2022-11-24T19:32:11.478Z,98947.40
2022-11-24T19:34:39.650Z,98948.60
2022-11-24T19:37:07.809Z,98954.00
2022-11-24T19:39:35.930Z,98957.40
2022-11-24T19:42:05.090Z,98958.60
2022-11-24T19:44:33.145Z,98971.80
2022-11-24T19:47:01.585Z,98972.00
2022-11-24T19:49:29.712Z,98968.40
2022-11-24T19:51:57.591Z,98968.40
2022-11-24T19:54:25.787Z,98967.20
2022-11-24T19:56:55.514Z,98964.20
2022-11-24T19:59:26.603Z,98964.20
2022-11-24T20:01:54.575Z,98961.80
2022-11-24T20:04:23.543Z,98963.80
2022-11-24T20:06:52.364Z,98974.40
2022-11-24T20:09:20.186Z,98965.60
2022-11-24T20:11:49.293Z,98975.20
2022-11-24T20:14:19.125Z,98978.40
2022-11-24T20:16:48.017Z,98979.00
2022-11-24T20:19:17.297Z,98990.40
2022-11-24T20:21:50.136Z,98994.20
2022-11-24T20:24:21.185Z,98995.40
2022-11-24T20:27:00.283Z,99000.60
2022-11-24T20:29:29.449Z,98996.20
2022-11-24T20:31:57.348Z,98998.40
2022-11-24T20:34:26.409Z,98998.40
2022-11-24T20:36:54.390Z,99004.00
2022-11-24T20:39:26.388Z,99001.80
2022-11-24T20:41:55.707Z,99007.80
2022-11-24T20:44:24.012Z,99018.80
2022-11-24T20:46:51.781Z,99019.60
2022-11-24T20:49:20.354Z,99017.00
2022-11-24T20:51:48.652Z,99016.80
2022-11-24T20:54:18.012Z,99019.40
2022-11-24T20:56:47.001Z,99016.00
2022-11-24T20:59:21.656Z,99013.20
2022-11-24T21:01:55.196Z,99017.80
2022-11-24T21:04:25.579Z,99009.60
2022-11-24T21:06:53.548Z,99008.00
2022-11-24T21:09:21.618Z,99008.80
2022-11-24T21:11:49.784Z,99014.00
2022-11-24T21:14:17.730Z,99013.20
2022-11-24T21:16:45.763Z,99013.20
2022-11-24T21:19:14.629Z,99014.60
2022-11-24T21:21:43.323Z,99009.80
2022-11-24T21:24:16.516Z,99008.60
2022-11-24T21:26:47.535Z,99002.20
2022-11-24T21:29:18.807Z,98997.80
2022-11-24T21:31:46.950Z,98999.00
2022-11-24T21:34:16.454Z,99008.00
2022-11-24T21:36:45.167Z,99013.20
2022-11-24T21:39:15.537Z,99016.80
2022-11-24T21:41:43.601Z,99011.40
2022-11-24T21:44:13.478Z,99011.20
2022-11-24T21:46:45.936Z,99010.20
2022-11-24T21:49:18.958Z,99020.80
2022-11-24T21:51:47.387Z,99023.60
2022-11-24T21:54:15.247Z,99032.00
2022-11-24T21:56:43.243Z,99033.20
2022-11-24T21:59:11.090Z,99032.60
2022-11-24T22:01:39.006Z,99030.60
2022-11-24T22:04:06.929Z,99025.60
2022-11-24T22:06:35.022Z,99027.20
2022-11-24T22:09:02.675Z,99029.40
2022-11-24T22:11:30.529Z,99030.20
2022-11-24T22:13:58.241Z,99031.60
2022-11-24T22:16:26.132Z,99034.00
2022-11-24T22:18:53.983Z,99035.80
2022-11-24T22:21:24.332Z,99035.00
2022-11-24T22:23:52.792Z,99043.80
2022-11-24T22:26:22.871Z,99050.80
2022-11-24T22:28:50.861Z,99052.00
2022-11-24T22:31:24.364Z,99057.20
2022-11-24T22:33:53.101Z,99056.20
2022-11-24T22:36:22.432Z,99062.20
2022-11-24T22:38:58.216Z,99062.20
2022-11-24T22:41:26.106Z,99060.20
2022-11-24T22:43:53.954Z,99049.40
2022-11-24T22:46:24.103Z,99060.60
2022-11-24T22:48:53.223Z,99060.60
2022-11-24T22:51:29.979Z,99064.20
2022-11-24T22:54:00.610Z,99063.80
2022-11-24T22:56:29.887Z,99065.40
2022-11-24T22:58:59.469Z,99065.80
2022-11-24T23:01:29.796Z,99066.40
2022-11-24T23:03:57.663Z,99070.00
2022-11-24T23:06:28.225Z,99074.60
2022-11-24T23:08:57.203Z,99072.80
2022-11-24T23:11:36.278Z,99075.80
2022-11-24T23:14:13.592Z,99068.80
2022-11-24T23:16:41.997Z,99071.60
2022-11-24T23:19:10.000Z,99077.80
2022-11-24T23:21:40.657Z,99073.20
2022-11-24T23:24:10.028Z,99082.40
2022-11-24T23:26:39.698Z,99079.80
2022-11-24T23:29:07.874Z,99085.40
2022-11-24T23:31:35.739Z,99083.60
2022-11-24T23:34:03.938Z,99086.20
2022-11-24T23:36:32.110Z,99084.60
2022-11-24T23:39:08.860Z,99083.20
2022-11-24T23:41:36.721Z,99083.00
2022-11-24T23:44:04.703Z,99082.80
2022-11-24T23:46:32.664Z,99085.20
2022-11-24T23:49:00.462Z,99090.60
2022-11-24T23:51:30.408Z,99092.00
2022-11-24T23:53:59.224Z,99089.20
2022-11-24T23:56:34.364Z,99086.80
2022-11-24T23:59:02.975Z,99087.20
